createdAt,value
2019-01-26T00:02:22.603Z,86.34
2019-01-26T00:04:52.087Z,86.23
2019-01-26T00:07:21.553Z,86.34
2019-01-26T00:09:51.044Z,86.23
2019-01-26T00:12:20.538Z,86.12
2019-01-26T00:14:50.089Z,86.25
2019-01-26T00:17:19.577Z,85.82
2019-01-26T00:19:49.098Z,86.31
2019-01-26T00:22:18.558Z,86.36
2019-01-26T00:24:48.058Z,86.47
2019-01-26T00:27:17.595Z,86.06
2019-01-26T00:29:47.087Z,85.63
2019-01-26T00:32:16.564Z,85.25
2019-01-26T00:34:46.060Z,85.37
2019-01-26T00:37:15.539Z,85.31
2019-01-26T00:39:45.174Z,85.63
2019-01-26T00:42:14.702Z,85.80
2019-01-26T00:44:44.228Z,85.22
2019-01-26T00:47:13.722Z,84.72
2019-01-26T00:49:43.228Z,85.12
2019-01-26T00:52:12.711Z,85.36
2019-01-26T00:54:42.206Z,85.48
2019-01-26T00:57:11.673Z,86.11
2019-01-26T00:59:41.158Z,86.19
2019-01-26T01:02:10.651Z,86.57
2019-01-26T01:04:40.260Z,86.92
2019-01-26T01:07:09.771Z,87.19
2019-01-26T01:09:39.341Z,87.19
2019-01-26T01:12:08.904Z,86.70
2019-01-26T01:14:38.413Z,87.32
2019-01-26T01:17:08.011Z,87.95
2019-01-26T01:19:37.549Z,87.22
2019-01-26T01:22:07.012Z,87.75
2019-01-26T01:24:36.504Z,88.31
2019-01-26T01:27:06.014Z,87.91
2019-01-26T01:29:35.499Z,87.85
2019-01-26T01:32:04.976Z,87.78
2019-01-26T01:34:36.206Z,88.06
2019-01-26T01:37:06.015Z,87.54
2019-01-26T01:39:35.513Z,87.02
2019-01-26T01:42:05.086Z,86.79
2019-01-26T01:44:34.571Z,86.79
2019-01-26T01:47:04.089Z,86.61
2019-01-26T01:49:33.569Z,86.37
2019-01-26T01:52:03.072Z,86.02
2019-01-26T01:54:32.546Z,85.93
2019-01-26T01:57:02.013Z,85.58
2019-01-26T01:59:31.474Z,85.52
2019-01-26T02:02:00.962Z,85.59
2019-01-26T02:04:30.436Z,85.20
2019-01-26T02:06:59.932Z,85.21
2019-01-26T02:09:29.411Z,85.26
2019-01-26T02:11:58.946Z,85.37
2019-01-26T02:14:28.424Z,85.75
2019-01-26T02:16:57.854Z,85.94
2019-01-26T02:19:27.392Z,86.04
2019-01-26T02:21:56.860Z,85.65
2019-01-26T02:24:26.371Z,85.84
2019-01-26T02:26:56.002Z,86.00
2019-01-26T02:29:25.517Z,86.17
2019-01-26T02:31:54.961Z,86.37
2019-01-26T02:34:24.434Z,85.85
2019-01-26T02:36:53.921Z,85.83
2019-01-26T02:39:23.459Z,86.06
2019-01-26T02:41:52.921Z,86.23
2019-01-26T02:44:22.403Z,86.22
2019-01-26T02:46:57.955Z,86.12
2019-01-26T02:49:23.083Z,86.24
2019-01-26T02:51:52.599Z,86.40
2019-01-26T02:54:22.099Z,86.09
2019-01-26T02:56:51.607Z,86.05
2019-01-26T02:59:21.118Z,86.12
2019-01-26T03:01:50.653Z,86.11
2019-01-26T03:04:20.153Z,85.64
2019-01-26T03:06:49.608Z,85.49
2019-01-26T03:09:19.077Z,85.37
2019-01-26T03:11:48.627Z,85.04
2019-01-26T03:14:18.069Z,85.03
2019-01-26T03:16:47.551Z,84.98
2019-01-26T03:19:17.041Z,85.14
2019-01-26T03:21:46.537Z,85.43
2019-01-26T03:24:16.053Z,85.37
2019-01-26T03:26:45.556Z,85.59
2019-01-26T03:29:15.095Z,86.55
2019-01-26T03:31:44.548Z,86.73
2019-01-26T03:34:14.017Z,86.73
2019-01-26T03:36:43.541Z,86.38
2019-01-26T03:39:13.060Z,86.16
2019-01-26T03:41:42.601Z,85.99
2019-01-26T03:44:12.071Z,85.88
2019-01-26T03:46:41.552Z,86.21
2019-01-26T03:49:11.100Z,86.37
2019-01-26T03:51:40.595Z,86.40
2019-01-26T03:54:10.198Z,85.95
2019-01-26T03:56:39.755Z,86.47
2019-01-26T03:59:09.288Z,86.08
2019-01-26T04:01:39.163Z,85.37
2019-01-26T04:04:08.705Z,85.35
2019-01-26T04:06:38.208Z,85.09
2019-01-26T04:09:09.993Z,84.92
2019-01-26T04:11:39.513Z,85.06
2019-01-26T04:14:09.121Z,85.07
2019-01-26T04:16:38.608Z,84.46
2019-01-26T04:19:08.161Z,84.44
2019-01-26T04:21:37.616Z,84.83
2019-01-26T04:24:07.098Z,84.37
2019-01-26T04:26:36.683Z,84.07
2019-01-26T04:29:06.168Z,84.27
2019-01-26T04:31:35.668Z,84.08
2019-01-26T04:34:05.126Z,84.22
2019-01-26T04:36:34.704Z,83.13
2019-01-26T04:39:05.625Z,83.42
2019-01-26T04:41:35.114Z,83.42
2019-01-26T04:44:04.722Z,83.09
2019-01-26T04:46:34.215Z,82.03
2019-01-26T04:49:03.735Z,82.15
2019-01-26T04:51:33.241Z,81.88
2019-01-26T04:54:02.707Z,82.44
2019-01-26T04:56:32.201Z,82.77
2019-01-26T04:59:01.740Z,82.85
2019-01-26T05:01:31.249Z,82.15
2019-01-26T05:04:00.765Z,82.18
2019-01-26T05:06:30.275Z,81.74
2019-01-26T05:08:59.752Z,81.95
2019-01-26T05:11:29.219Z,82.10
2019-01-26T05:13:58.707Z,82.20
2019-01-26T05:16:28.198Z,81.85
2019-01-26T05:18:57.721Z,82.15
2019-01-26T05:21:27.208Z,81.84
2019-01-26T05:23:56.728Z,81.63
2019-01-26T05:26:26.208Z,81.15
2019-01-26T05:28:55.680Z,81.25
2019-01-26T05:31:25.237Z,80.84
2019-01-26T05:33:54.786Z,80.90
2019-01-26T05:36:24.310Z,80.86
2019-01-26T05:38:53.829Z,80.78
2019-01-26T05:41:23.345Z,80.79
2019-01-26T05:43:52.837Z,80.34
2019-01-26T05:46:22.298Z,80.73
2019-01-26T05:48:51.814Z,79.77
2019-01-26T05:51:21.292Z,79.82
2019-01-26T05:53:50.760Z,79.50
2019-01-26T05:56:20.299Z,79.15
2019-01-26T05:58:49.793Z,79.59
2019-01-26T06:01:19.323Z,79.49
2019-01-26T06:03:48.875Z,79.32
2019-01-26T06:06:18.469Z,79.62
2019-01-26T06:08:48.027Z,79.52
2019-01-26T06:11:17.458Z,79.28
2019-01-26T06:13:46.964Z,79.00
2019-01-26T06:16:16.483Z,79.34
2019-01-26T06:18:46.225Z,79.00
2019-01-26T06:21:16.087Z,78.86
2019-01-26T06:23:46.838Z,79.33
2019-01-26T06:26:16.432Z,79.07
2019-01-26T06:28:45.948Z,78.94
2019-01-26T06:31:15.452Z,78.56
2019-01-26T06:33:45.049Z,78.66
2019-01-26T06:36:14.577Z,78.29
2019-01-26T06:38:46.201Z,77.54
2019-01-26T06:41:15.673Z,78.39
2019-01-26T06:43:45.174Z,78.07
2019-01-26T06:46:14.621Z,78.30
2019-01-26T06:48:45.306Z,77.04
2019-01-26T06:51:14.819Z,77.10
2019-01-26T06:53:44.392Z,77.53
2019-01-26T06:56:13.902Z,77.40
2019-01-26T06:58:44.238Z,76.72
2019-01-26T07:01:13.719Z,77.24
2019-01-26T07:03:43.398Z,77.05
2019-01-26T07:06:19.583Z,76.72
2019-01-26T07:08:49.035Z,77.69
2019-01-26T07:11:18.548Z,77.50
2019-01-26T07:13:48.058Z,77.32
2019-01-26T07:16:19.260Z,78.51
2019-01-26T07:18:48.761Z,78.01
2019-01-26T07:21:18.283Z,78.02
2019-01-26T07:23:48.058Z,78.57
2019-01-26T07:26:17.539Z,78.55
2019-01-26T07:28:47.021Z,78.29
2019-01-26T07:31:16.539Z,78.17
2019-01-26T07:33:46.092Z,78.78
2019-01-26T07:36:15.645Z,78.86
2019-01-26T07:38:45.608Z,78.75
2019-01-26T07:41:15.320Z,79.05
2019-01-26T07:43:44.838Z,79.61
2019-01-26T07:46:14.342Z,79.62
2019-01-26T07:48:44.562Z,79.30
2019-01-26T07:51:14.143Z,79.47
2019-01-26T07:53:43.923Z,80.00
2019-01-26T07:56:13.430Z,79.62
2019-01-26T07:58:43.347Z,79.87
2019-01-26T08:01:12.881Z,80.44
2019-01-26T08:03:42.387Z,80.34
2019-01-26T08:06:12.952Z,80.21
2019-01-26T08:08:42.472Z,79.56
2019-01-26T08:11:12.042Z,79.53
2019-01-26T08:13:41.581Z,78.97
2019-01-26T08:16:11.114Z,79.64
2019-01-26T08:18:40.655Z,79.63
2019-01-26T08:21:10.211Z,80.72
2019-01-26T08:23:39.687Z,81.19
2019-01-26T08:26:09.203Z,82.07
2019-01-26T08:28:38.728Z,81.32
2019-01-26T08:31:08.403Z,82.07
2019-01-26T08:33:37.964Z,81.84
2019-01-26T08:36:07.711Z,82.08
2019-01-26T08:38:38.155Z,82.10
2019-01-26T08:41:07.766Z,82.08
2019-01-26T08:43:37.288Z,82.09
2019-01-26T08:46:06.872Z,82.39
2019-01-26T08:48:36.424Z,81.73
2019-01-26T08:51:06.209Z,82.43
2019-01-26T08:53:35.664Z,82.83
2019-01-26T08:56:05.127Z,82.05
2019-01-26T08:58:34.872Z,81.87
2019-01-26T09:01:04.733Z,82.24
2019-01-26T09:03:51.316Z,82.01
2019-01-26T09:06:36.592Z,82.01
2019-01-26T09:09:12.918Z,82.05
2019-01-26T09:11:42.463Z,80.63
2019-01-26T09:14:11.971Z,79.76
2019-01-26T09:16:41.806Z,80.80
2019-01-26T09:19:11.326Z,80.19
2019-01-26T09:21:40.853Z,79.50
2019-01-26T09:24:10.374Z,80.02
2019-01-26T09:26:40.051Z,80.11
2019-01-26T09:29:09.683Z,80.10
2019-01-26T09:31:39.264Z,80.28
2019-01-26T09:34:08.977Z,79.37
2019-01-26T09:36:38.620Z,79.90
2019-01-26T09:39:12.207Z,80.06
2019-01-26T09:41:41.773Z,79.25
2019-01-26T09:44:11.365Z,79.17
2019-01-26T09:46:40.860Z,78.38
2019-01-26T09:49:10.412Z,77.88
2019-01-26T09:51:40.259Z,76.69
2019-01-26T09:54:09.968Z,77.49
2019-01-26T09:56:39.560Z,77.62
2019-01-26T09:59:09.254Z,77.04
2019-01-26T10:01:38.768Z,76.46
2019-01-26T10:04:08.273Z,76.53
2019-01-26T10:06:37.848Z,76.60
2019-01-26T10:09:11.270Z,76.13
2019-01-26T10:11:42.658Z,75.30
2019-01-26T10:14:12.233Z,75.25
2019-01-26T10:16:41.794Z,74.42
2019-01-26T10:19:11.401Z,74.72
2019-01-26T10:21:40.973Z,75.10
2019-01-26T10:24:10.482Z,75.05
2019-01-26T10:26:40.043Z,74.38
2019-01-26T10:29:09.611Z,75.00
2019-01-26T10:31:39.232Z,74.77
2019-01-26T10:34:08.767Z,74.82
2019-01-26T10:36:54.800Z,74.99
2019-01-26T10:39:30.813Z,74.65
2019-01-26T10:42:18.261Z,74.78
2019-01-26T10:44:49.262Z,74.92
2019-01-26T10:47:20.808Z,74.83
2019-01-26T10:49:50.434Z,74.91
2019-01-26T10:52:20.549Z,75.18
2019-01-26T10:54:50.245Z,75.07
2019-01-26T10:57:19.971Z,75.22
2019-01-26T10:59:49.601Z,74.14
2019-01-26T11:02:19.984Z,74.69
2019-01-26T11:04:49.614Z,73.43
2019-01-26T11:07:19.115Z,74.37
2019-01-26T11:09:49.461Z,74.80
2019-01-26T11:12:20.719Z,74.96
2019-01-26T11:14:50.236Z,74.99
2019-01-26T11:17:19.721Z,74.53
2019-01-26T11:19:49.295Z,73.57
2019-01-26T11:22:28.517Z,72.92
2019-01-26T11:24:58.107Z,73.97
2019-01-26T11:27:28.164Z,74.60
2019-01-26T11:29:57.875Z,74.17
2019-01-26T11:32:27.364Z,74.07
2019-01-26T11:34:59.934Z,74.38
2019-01-26T11:37:29.636Z,73.68
2019-01-26T11:40:15.084Z,74.47
2019-01-26T11:42:44.965Z,74.57
2019-01-26T11:45:36.455Z,74.48
2019-01-26T11:48:08.511Z,74.03
2019-01-26T11:50:43.302Z,73.89
2019-01-26T11:53:12.953Z,73.85
2019-01-26T11:55:54.652Z,74.27
2019-01-26T11:58:24.245Z,74.15
2019-01-26T12:01:13.089Z,74.12
2019-01-26T12:03:49.403Z,73.97
2019-01-26T12:06:28.247Z,74.33
2019-01-26T12:09:00.832Z,74.03
2019-01-26T12:11:36.998Z,73.39
2019-01-26T12:14:06.544Z,74.12
2019-01-26T12:16:36.111Z,74.31
2019-01-26T12:19:07.443Z,74.50
2019-01-26T12:21:42.333Z,74.88
2019-01-26T12:24:12.154Z,75.27
2019-01-26T12:26:58.043Z,74.54
2019-01-26T12:29:27.570Z,74.27
2019-01-26T12:31:57.412Z,74.35
2019-01-26T12:34:26.917Z,74.49
2019-01-26T12:36:59.742Z,74.57
2019-01-26T12:39:43.713Z,74.06
2019-01-26T12:42:46.119Z,74.32
2019-01-26T12:45:17.940Z,74.54
2019-01-26T12:47:47.553Z,74.51
2019-01-26T12:50:17.358Z,75.15
2019-01-26T12:52:57.082Z,74.64
2019-01-26T12:55:28.935Z,73.63
2019-01-26T12:57:58.430Z,73.95
2019-01-26T13:00:28.013Z,74.20
2019-01-26T13:02:57.561Z,74.53
2019-01-26T13:05:27.122Z,73.30
2019-01-26T13:08:12.018Z,73.40
2019-01-26T13:10:45.034Z,73.10
2019-01-26T13:13:14.656Z,72.53
2019-01-26T13:15:44.152Z,73.86
2019-01-26T13:18:13.804Z,74.25
2019-01-26T13:20:43.312Z,73.92
2019-01-26T13:23:13.064Z,73.93
2019-01-26T13:25:43.032Z,73.93
2019-01-26T13:28:12.726Z,74.66
2019-01-26T13:30:42.385Z,74.38
2019-01-26T13:33:11.887Z,75.37
2019-01-26T13:35:41.480Z,74.93
2019-01-26T13:38:10.984Z,75.10
2019-01-26T13:40:40.583Z,74.77
2019-01-26T13:43:10.126Z,74.71
2019-01-26T13:45:39.720Z,75.59
2019-01-26T13:48:09.313Z,74.58
2019-01-26T13:50:38.878Z,74.72
2019-01-26T13:53:08.727Z,74.74
2019-01-26T13:55:38.309Z,74.56
2019-01-26T13:58:08.040Z,74.99
2019-01-26T14:00:37.882Z,74.78
2019-01-26T14:03:07.396Z,75.08
2019-01-26T14:05:36.993Z,74.54
2019-01-26T14:08:06.559Z,74.72
2019-01-26T14:10:36.044Z,74.56
2019-01-26T14:13:05.872Z,74.60
2019-01-26T14:15:35.378Z,74.38
2019-01-26T14:18:05.285Z,74.76
2019-01-26T14:20:34.812Z,74.53
2019-01-26T14:23:04.423Z,74.81
2019-01-26T14:25:34.295Z,74.88
2019-01-26T14:28:03.908Z,74.60
2019-01-26T14:30:43.046Z,75.33
2019-01-26T14:33:12.590Z,76.19
2019-01-26T14:35:42.128Z,75.77
2019-01-26T14:38:11.798Z,75.89
2019-01-26T14:40:41.453Z,76.39
2019-01-26T14:43:10.976Z,76.65
2019-01-26T14:45:40.552Z,76.86
2019-01-26T14:48:10.240Z,76.85
2019-01-26T14:50:39.835Z,76.93
2019-01-26T14:53:09.456Z,76.94
2019-01-26T14:55:39.042Z,77.11
2019-01-26T14:58:08.711Z,77.06
2019-01-26T15:00:38.255Z,77.19
2019-01-26T15:03:07.708Z,77.63
2019-01-26T15:05:37.313Z,77.75
2019-01-26T15:08:06.917Z,78.38
2019-01-26T15:10:36.456Z,78.52
2019-01-26T15:13:05.988Z,78.17
2019-01-26T15:15:35.540Z,78.75
2019-01-26T15:18:05.048Z,78.36
2019-01-26T15:20:37.415Z,78.12
2019-01-26T15:23:07.907Z,77.98
2019-01-26T15:25:37.798Z,77.87
2019-01-26T15:28:08.223Z,77.96
2019-01-26T15:30:47.089Z,77.70
2019-01-26T15:33:16.990Z,78.04
2019-01-26T15:35:46.489Z,78.34
2019-01-26T15:38:15.997Z,78.71
2019-01-26T15:40:45.513Z,77.90
2019-01-26T15:43:15.127Z,77.73
2019-01-26T15:45:47.068Z,78.15
2019-01-26T15:48:16.719Z,78.09
2019-01-26T15:50:46.200Z,78.22
2019-01-26T15:53:15.730Z,77.79
2019-01-26T15:55:45.277Z,77.85
2019-01-26T15:58:14.792Z,77.78
2019-01-26T16:00:46.178Z,77.67
2019-01-26T16:03:15.928Z,77.81
2019-01-26T16:05:45.712Z,77.59
2019-01-26T16:08:15.343Z,78.09
2019-01-26T16:10:44.834Z,78.63
2019-01-26T16:13:14.341Z,78.52
2019-01-26T16:15:43.885Z,78.46
2019-01-26T16:18:15.656Z,78.59
2019-01-26T16:20:45.180Z,78.49
2019-01-26T16:23:14.705Z,78.28
2019-01-26T16:25:44.536Z,78.41
2019-01-26T16:28:14.262Z,78.70
2019-01-26T16:30:43.833Z,78.79
2019-01-26T16:33:13.446Z,78.65
2019-01-26T16:35:43.369Z,78.74
2019-01-26T16:38:12.838Z,77.85
2019-01-26T16:40:44.323Z,78.09
2019-01-26T16:43:13.928Z,77.62
2019-01-26T16:45:50.561Z,77.76
2019-01-26T16:48:20.128Z,77.65
2019-01-26T16:50:50.164Z,77.85
2019-01-26T16:53:19.642Z,78.19
2019-01-26T16:55:49.173Z,77.91
2019-01-26T16:58:18.673Z,78.10
2019-01-26T17:00:50.216Z,78.27
2019-01-26T17:03:19.857Z,78.47
2019-01-26T17:05:49.371Z,78.53
2019-01-26T17:08:18.850Z,78.31
2019-01-26T17:10:51.238Z,77.63
2019-01-26T17:13:23.488Z,77.61
2019-01-26T17:15:53.032Z,77.42
2019-01-26T17:18:22.501Z,77.39
2019-01-26T17:20:52.000Z,77.99
2019-01-26T17:23:22.016Z,78.38
2019-01-26T17:25:51.522Z,77.96
2019-01-26T17:28:21.029Z,77.98
2019-01-26T17:30:50.648Z,78.15
2019-01-26T17:33:20.213Z,77.79
2019-01-26T17:35:49.747Z,78.00
2019-01-26T17:38:19.295Z,78.14
2019-01-26T17:40:54.282Z,78.03
2019-01-26T17:43:20.104Z,78.55
2019-01-26T17:45:49.616Z,78.39
2019-01-26T17:48:19.854Z,78.00
2019-01-26T17:50:49.391Z,77.07
2019-01-26T17:53:18.969Z,76.95
2019-01-26T17:55:48.478Z,76.70
2019-01-26T17:58:17.987Z,76.34
2019-01-26T18:01:02.894Z,76.46
2019-01-26T18:03:32.439Z,76.37
2019-01-26T18:06:02.073Z,76.03
2019-01-26T18:08:31.594Z,76.30
2019-01-26T18:11:01.083Z,76.60
2019-01-26T18:13:30.630Z,75.88
2019-01-26T18:16:00.379Z,76.16
2019-01-26T18:18:30.068Z,75.81
2019-01-26T18:20:59.663Z,75.82
2019-01-26T18:23:34.829Z,75.89
2019-01-26T18:26:05.156Z,75.74
2019-01-26T18:28:34.765Z,75.91
2019-01-26T18:31:04.486Z,76.00
2019-01-26T18:33:34.070Z,76.09
2019-01-26T18:36:04.029Z,76.30
2019-01-26T18:38:33.850Z,75.86
2019-01-26T18:41:03.349Z,75.74
2019-01-26T18:43:32.885Z,75.72
2019-01-26T18:46:02.514Z,76.35
2019-01-26T18:48:33.413Z,76.89
2019-01-26T18:51:02.890Z,75.82
2019-01-26T18:53:32.491Z,76.21
2019-01-26T18:56:02.078Z,76.11
2019-01-26T18:58:31.740Z,75.84
2019-01-26T19:01:10.302Z,75.75
2019-01-26T19:04:03.989Z,75.82
2019-01-26T19:06:33.499Z,75.85
2019-01-26T19:09:04.249Z,75.83
2019-01-26T19:11:33.835Z,76.20
2019-01-26T19:14:06.245Z,75.78
2019-01-26T19:16:45.160Z,75.77
2019-01-26T19:24:40.359Z,75.17
2019-01-26T19:27:13.661Z,75.01
2019-01-26T19:29:47.499Z,74.93
2019-01-26T19:32:19.676Z,74.98
2019-01-26T19:34:49.978Z,75.06
2019-01-26T19:37:20.903Z,75.21
2019-01-26T19:39:50.419Z,75.15
2019-01-26T19:42:20.084Z,74.94
2019-01-26T19:44:49.786Z,74.91
2019-01-26T19:47:19.436Z,74.57
2019-01-26T19:49:49.015Z,74.33
2019-01-26T19:52:18.504Z,74.24
2019-01-26T19:54:48.006Z,73.88
2019-01-26T19:57:17.554Z,73.76
2019-01-26T19:59:47.011Z,74.20
2019-01-26T20:02:20.332Z,74.07
2019-01-26T20:04:49.864Z,74.18
2019-01-26T20:07:20.575Z,74.52
2019-01-26T20:09:51.672Z,74.41
2019-01-26T20:12:21.220Z,74.44
2019-01-26T20:15:03.365Z,75.06
2019-01-26T20:17:34.325Z,74.94
2019-01-26T20:20:07.964Z,75.25
2019-01-26T20:22:37.442Z,75.37
2019-01-26T20:25:07.608Z,75.17
2019-01-26T20:27:38.418Z,75.35
2019-01-26T20:30:11.589Z,74.90
2019-01-26T20:32:41.379Z,74.88
2019-01-26T20:35:11.065Z,74.84
2019-01-26T20:37:40.822Z,75.00
2019-01-26T20:40:12.732Z,75.20
2019-01-26T20:42:42.528Z,75.47
2019-01-26T20:45:14.813Z,75.27
2019-01-26T20:47:44.321Z,75.52
2019-01-26T20:50:15.970Z,75.69
2019-01-26T20:52:45.532Z,75.47
2019-01-26T20:55:15.439Z,75.64
2019-01-26T20:57:45.206Z,75.88
2019-01-26T21:00:27.840Z,75.75
2019-01-26T21:02:57.480Z,75.73
2019-01-26T21:05:27.063Z,76.02
2019-01-26T21:07:56.640Z,75.95
2019-01-26T21:10:30.640Z,76.39
2019-01-26T21:13:00.703Z,76.56
2019-01-26T21:15:30.433Z,76.51
2019-01-26T21:18:00.020Z,76.92
2019-01-26T21:20:29.568Z,76.83
2019-01-26T21:22:59.074Z,76.65
2019-01-26T21:25:28.661Z,76.83
2019-01-26T21:27:58.181Z,76.98
2019-01-26T21:30:28.756Z,77.20
2019-01-26T21:32:58.738Z,77.17
2019-01-26T21:35:28.515Z,76.97
2019-01-26T21:37:58.038Z,77.25
2019-01-26T21:40:32.375Z,77.02
2019-01-26T21:43:02.399Z,76.86
2019-01-26T21:45:31.904Z,76.81
2019-01-26T21:48:01.387Z,76.50
2019-01-26T21:50:31.573Z,76.31
2019-01-26T21:53:01.516Z,76.02
2019-01-26T21:55:31.035Z,76.17
2019-01-26T21:58:00.543Z,76.38
2019-01-26T22:00:34.130Z,76.52
2019-01-26T22:03:03.834Z,76.27
2019-01-26T22:05:33.335Z,76.36
2019-01-26T22:08:02.811Z,76.01
2019-01-26T22:10:32.425Z,76.36
2019-01-26T22:13:01.961Z,76.58
2019-01-26T22:15:31.458Z,76.31
2019-01-26T22:18:00.946Z,76.40
2019-01-26T22:20:30.455Z,76.12
2019-01-26T22:22:59.981Z,76.36
2019-01-26T22:25:29.469Z,76.45
2019-01-26T22:27:59.125Z,76.54
2019-01-26T22:30:33.390Z,76.39
2019-01-26T22:33:02.933Z,76.39
2019-01-26T22:35:32.438Z,76.38
2019-01-26T22:38:01.975Z,76.67
2019-01-26T22:40:36.333Z,77.07
2019-01-26T22:43:06.424Z,77.39
2019-01-26T22:45:35.925Z,77.52
2019-01-26T22:48:05.489Z,77.78
2019-01-26T22:50:34.988Z,77.87
2019-01-26T22:53:04.748Z,77.89
2019-01-26T22:55:34.288Z,77.89
2019-01-26T22:58:04.365Z,77.75
2019-01-26T23:01:02.463Z,77.76
2019-01-26T23:04:19.018Z,77.99
2019-01-26T23:07:26.292Z,78.10
2019-01-26T23:10:08.976Z,78.42
2019-01-26T23:12:54.123Z,78.39
2019-01-26T23:15:50.558Z,78.60
2019-01-26T23:18:59.492Z,78.18
2019-01-26T23:22:19.042Z,78.24
2019-01-26T23:25:32.325Z,78.28
2019-01-26T23:28:19.850Z,77.79
2019-01-26T23:31:16.698Z,78.00
2019-01-26T23:33:47.826Z,78.13
2019-01-26T23:36:17.615Z,78.72
2019-01-26T23:38:47.175Z,78.82
2019-01-26T23:41:16.681Z,78.75
2019-01-26T23:43:46.198Z,78.59
2019-01-26T23:46:15.982Z,78.71
2019-01-26T23:48:45.855Z,78.76
2019-01-26T23:51:16.750Z,78.08
2019-01-26T23:53:46.273Z,78.44
2019-01-26T23:56:19.748Z,78.64
2019-01-26T23:58:49.782Z,78.89
